Time;durP1;ratioP1;P1;durP2;ratioP2;P2;SDS_P1;SDS_P2;PMS_P1;PMS_P2;Temp;Humidity;BMP_temperature;BMP_pressure;BME280_temperature;BME280_humidity;BME280_pressure;Samples;Min_cycle;Max_cycle;Signal;HPM_P1;HPM_P2
2021/09/23 00:01:45;;;;;;;16.92;14.10;;;12.00;99.90;;;;;;4937314;29;20023;-74
2021/09/23 00:04:21;;;;;;;17.75;14.38;;;11.90;99.90;;;;;;4935928;29;20027;-74
2021/09/23 00:06:48;;;;;;;16.95;14.00;;;12.00;99.90;;;;;;4953713;29;20023;-74
2021/09/23 00:09:14;;;;;;;16.15;14.13;;;11.90;99.90;;;;;;4953992;29;20085;-75
2021/09/23 00:11:40;;;;;;;14.52;13.07;;;11.90;99.90;;;;;;4936348;29;20020;-75
2021/09/23 00:14:05;;;;;;;16.45;13.75;;;11.90;99.90;;;;;;4936425;29;20032;-75
2021/09/23 00:16:31;;;;;;;16.98;13.70;;;11.90;99.90;;;;;;4953514;29;20029;-75
2021/09/23 00:18:57;;;;;;;16.63;13.35;;;11.90;99.90;;;;;;4953788;29;20043;-75
2021/09/23 00:21:22;;;;;;;16.20;13.27;;;11.90;99.90;;;;;;4936766;29;20027;-76
2021/09/23 00:23:49;;;;;;;15.68;14.02;;;11.80;99.90;;;;;;4935913;29;20090;-75
2021/09/23 00:26:15;;;;;;;16.33;13.88;;;11.80;99.90;;;;;;4936392;28;20027;-75
2021/09/23 00:28:43;;;;;;;16.98;14.07;;;11.80;99.90;;;;;;4956876;29;20388;-75
2021/09/23 00:31:09;;;;;;;15.13;13.35;;;11.80;99.90;;;;;;4939365;29;20027;-75
2021/09/23 00:33:34;;;;;;;17.13;13.73;;;11.80;99.90;;;;;;4957272;29;20070;-75
2021/09/23 00:36:00;;;;;;;19.50;15.15;;;11.80;99.90;;;;;;4956698;29;20023;-75
2021/09/23 00:38:25;;;;;;;16.42;14.02;;;11.80;99.90;;;;;;4956615;29;20031;-75
2021/09/23 00:40:51;;;;;;;18.48;15.35;;;11.80;99.90;;;;;;4940189;29;20162;-75
2021/09/23 00:43:16;;;;;;;19.23;16.00;;;11.80;99.90;;;;;;4939635;29;20054;-74
2021/09/23 00:45:42;;;;;;;18.83;15.50;;;11.80;99.90;;;;;;4939335;29;20551;-74
2021/09/23 00:48:07;;;;;;;19.25;13.70;;;11.80;99.90;;;;;;4939382;29;20031;-75
2021/09/23 00:50:33;;;;;;;19.90;14.68;;;11.80;99.90;;;;;;4940061;29;20448;-75
2021/09/23 00:52:59;;;;;;;17.67;13.50;;;11.80;99.90;;;;;;4956120;29;20403;-75
2021/09/23 00:55:24;;;;;;;17.08;13.73;;;11.80;99.90;;;;;;4939621;29;20082;-75
2021/09/23 00:57:50;;;;;;;16.80;13.57;;;11.80;99.90;;;;;;4957085;29;20488;-75
2021/09/23 01:00:18;;;;;;;15.98;13.85;;;11.80;99.90;;;;;;4955938;29;20492;-76
2021/09/23 01:02:43;;;;;;;15.57;13.85;;;11.80;99.90;;;;;;4939440;29;20034;-75
2021/09/23 01:05:09;;;;;;;16.80;14.57;;;11.80;99.90;;;;;;4938894;29;20395;-75
2021/09/23 01:07:36;;;;;;;19.27;14.80;;;11.70;99.90;;;;;;4955985;28;20075;-74
2021/09/23 01:10:03;;;;;;;19.08;14.13;;;11.70;99.90;;;;;;4956320;29;20031;-75
2021/09/23 01:12:29;;;;;;;19.95;14.98;;;11.70;99.90;;;;;;4956806;29;20026;-75
2021/09/23 01:14:56;;;;;;;18.45;15.70;;;11.70;99.90;;;;;;4953039;29;20074;-75
2021/09/23 01:17:22;;;;;;;19.40;14.57;;;11.70;99.90;;;;;;4923081;29;20074;-75
2021/09/23 01:19:49;;;;;;;17.38;14.40;;;11.70;99.90;;;;;;4940045;29;20035;-74
2021/09/23 01:22:16;;;;;;;18.52;15.15;;;11.60;99.90;;;;;;4939101;29;20025;-75
2021/09/23 01:24:42;;;;;;;18.88;14.77;;;11.60;99.90;;;;;;4956242;29;20526;-74
2021/09/23 01:27:09;;;;;;;16.08;13.57;;;11.60;99.90;;;;;;4955290;29;20042;-75
2021/09/23 01:29:36;;;;;;;21.42;15.52;;;11.60;99.90;;;;;;4956498;29;20033;-75
2021/09/23 01:32:04;;;;;;;17.55;14.63;;;11.60;99.90;;;;;;4938704;29;20016;-75
2021/09/23 01:34:30;;;;;;;22.25;16.60;;;11.60;99.90;;;;;;4955622;29;20034;-75
2021/09/23 01:36:56;;;;;;;22.85;16.85;;;11.60;99.90;;;;;;4955756;28;20019;-75
2021/09/23 01:39:24;;;;;;;26.80;17.15;;;11.60;99.90;;;;;;4954617;28;20031;-75
2021/09/23 01:41:50;;;;;;;19.88;15.88;;;11.60;99.90;;;;;;4955506;29;20086;-75
2021/09/23 01:44:16;;;;;;;19.75;15.32;;;11.60;99.90;;;;;;4955498;29;20089;-75
2021/09/23 01:46:42;;;;;;;18.02;15.13;;;11.60;99.90;;;;;;4939185;29;20058;-75
2021/09/23 01:49:07;;;;;;;19.25;15.57;;;11.60;99.90;;;;;;4954906;29;20031;-75
2021/09/23 01:51:33;;;;;;;19.45;15.75;;;11.60;99.90;;;;;;4938659;29;20020;-74
2021/09/23 01:53:59;;;;;;;19.65;15.68;;;11.60;99.90;;;;;;4955160;28;20416;-75
2021/09/23 01:56:25;;;;;;;26.02;17.35;;;11.60;99.90;;;;;;4955280;28;20105;-75
2021/09/23 01:58:50;;;;;;;19.88;15.80;;;11.50;99.90;;;;;;4955765;29;20037;-75
2021/09/23 02:01:16;;;;;;;19.77;15.60;;;11.50;99.90;;;;;;4938128;29;20034;-75
2021/09/23 02:03:42;;;;;;;19.13;15.93;;;11.50;99.90;;;;;;4937733;29;20020;-76
2021/09/23 02:06:07;;;;;;;22.00;16.52;;;11.50;99.90;;;;;;4955134;29;20122;-75
2021/09/23 02:08:33;;;;;;;20.45;15.70;;;11.50;99.90;;;;;;4955543;29;20039;-76
2021/09/23 02:10:59;;;;;;;20.08;15.77;;;11.50;99.90;;;;;;4954204;29;20051;-75
2021/09/23 02:13:24;;;;;;;19.05;15.98;;;11.50;99.90;;;;;;4955489;29;20384;-75
2021/09/23 02:15:50;;;;;;;18.42;15.38;;;11.40;99.90;;;;;;4955227;28;20019;-75
2021/09/23 02:18:16;;;;;;;20.02;15.38;;;11.40;99.90;;;;;;4954571;29;20035;-75
2021/09/23 02:20:41;;;;;;;22.17;16.33;;;11.40;99.90;;;;;;4938147;29;20026;-75
2021/09/23 02:23:07;;;;;;;22.20;16.48;;;11.40;99.90;;;;;;4936896;29;20035;-75
2021/09/23 02:25:33;;;;;;;23.63;18.27;;;11.30;99.90;;;;;;4938078;29;20035;-76
2021/09/23 02:27:58;;;;;;;21.17;16.75;;;11.30;99.90;;;;;;4937489;29;20024;-76
2021/09/23 02:30:24;;;;;;;21.25;16.55;;;11.30;99.90;;;;;;4937851;29;20383;-75
2021/09/23 02:32:50;;;;;;;25.58;17.55;;;11.30;99.90;;;;;;4954904;29;20026;-75
2021/09/23 02:35:16;;;;;;;22.67;16.40;;;11.30;99.90;;;;;;4954787;29;20027;-75
2021/09/23 02:37:42;;;;;;;25.92;17.70;;;11.30;99.90;;;;;;4954669;29;20054;-75
2021/09/23 02:40:09;;;;;;;24.52;16.65;;;11.30;99.90;;;;;;4937368;29;20023;-75
2021/09/23 02:42:35;;;;;;;20.48;15.55;;;11.30;99.90;;;;;;4954901;29;20114;-75
2021/09/23 02:45:01;;;;;;;24.13;16.60;;;11.30;99.90;;;;;;4936551;29;20122;-75
2021/09/23 02:47:27;;;;;;;22.83;17.05;;;11.30;99.90;;;;;;4937574;29;20109;-75
2021/09/23 02:49:52;;;;;;;27.02;17.10;;;11.30;99.90;;;;;;4954739;28;20475;-74
2021/09/23 02:52:18;;;;;;;25.55;17.10;;;11.30;99.90;;;;;;4953982;29;20380;-75
2021/09/23 02:54:43;;;;;;;23.83;16.60;;;11.30;99.90;;;;;;4954862;29;20041;-74
2021/09/23 02:57:09;;;;;;;24.45;16.67;;;11.30;99.90;;;;;;4937036;29;20030;-75
2021/09/23 02:59:35;;;;;;;22.17;16.70;;;11.30;99.90;;;;;;4937177;29;20031;-75
2021/09/23 03:02:01;;;;;;;24.52;16.83;;;11.30;99.90;;;;;;4954405;29;20030;-75
2021/09/23 03:04:26;;;;;;;23.17;16.80;;;11.30;99.90;;;;;;4954597;29;20565;-74
2021/09/23 03:06:52;;;;;;;22.48;17.35;;;11.30;99.90;;;;;;4953551;29;20046;-75
2021/09/23 03:09:17;;;;;;;21.42;16.45;;;11.20;99.90;;;;;;4937253;29;20376;-75
2021/09/23 03:11:44;;;;;;;24.30;18.15;;;11.20;99.90;;;;;;4954595;29;20019;-75
2021/09/23 03:14:10;;;;;;;23.08;17.13;;;11.20;99.90;;;;;;4953653;29;20456;-75
2021/09/23 03:16:35;;;;;;;26.15;16.95;;;11.20;99.90;;;;;;4954667;28;20131;-75
2021/09/23 03:19:01;;;;;;;23.38;17.20;;;11.20;99.90;;;;;;4954081;29;20042;-75
2021/09/23 03:21:26;;;;;;;24.00;16.95;;;11.20;99.90;;;;;;4953882;29;20028;-75
2021/09/23 03:23:52;;;;;;;21.55;16.33;;;11.20;99.90;;;;;;4954367;29;20502;-75
2021/09/23 03:26:18;;;;;;;24.67;16.60;;;11.10;99.90;;;;;;4953274;28;20031;-75
2021/09/23 03:28:43;;;;;;;21.55;16.00;;;11.10;99.90;;;;;;4954551;29;20027;-75
2021/09/23 03:31:09;;;;;;;22.17;16.52;;;11.00;99.90;;;;;;4953790;29;20086;-75
2021/09/23 03:33:34;;;;;;;22.27;16.08;;;11.00;99.90;;;;;;4953996;29;20032;-75
2021/09/23 03:36:00;;;;;;;22.52;16.90;;;11.00;99.90;;;;;;4953849;29;20151;-75
2021/09/23 03:38:26;;;;;;;22.15;16.50;;;11.00;99.90;;;;;;4937510;29;20028;-75
2021/09/23 03:40:51;;;;;;;22.85;16.75;;;11.00;99.90;;;;;;4953454;29;20027;-74
2021/09/23 03:43:18;;;;;;;22.35;16.17;;;11.00;99.90;;;;;;4936707;29;20564;-74
2021/09/23 03:45:44;;;;;;;24.80;17.48;;;10.90;99.90;;;;;;4936907;29;20070;-74
2021/09/23 03:48:10;;;;;;;22.92;16.75;;;10.90;99.90;;;;;;4953293;29;20027;-74
2021/09/23 03:50:36;;;;;;;23.67;17.23;;;10.90;99.90;;;;;;4954294;29;20033;-75
2021/09/23 03:53:02;;;;;;;22.73;16.70;;;10.90;99.90;;;;;;4953700;29;20023;-75
2021/09/23 03:55:28;;;;;;;22.38;17.52;;;10.90;99.90;;;;;;4936505;29;20038;-74
2021/09/23 03:57:53;;;;;;;23.98;16.48;;;10.90;99.90;;;;;;4953651;29;20027;-73
2021/09/23 04:00:22;;;;;;;21.70;16.00;;;10.80;99.90;;;;;;4954181;29;20170;-74
2021/09/23 04:02:48;;;;;;;25.60;16.17;;;10.80;99.90;;;;;;4937987;29;20023;-74
2021/09/23 04:05:14;;;;;;;23.15;16.92;;;10.80;99.90;;;;;;4957160;29;20042;-74
2021/09/23 04:07:40;;;;;;;19.92;15.75;;;10.70;99.90;;;;;;4957921;29;20035;-75
2021/09/23 04:10:07;;;;;;;24.10;16.70;;;10.80;99.90;;;;;;4939482;29;20027;-74
2021/09/23 04:12:33;;;;;;;28.02;16.80;;;10.70;99.90;;;;;;4940340;29;20106;-74
2021/09/23 04:14:59;;;;;;;22.73;16.77;;;10.70;99.90;;;;;;4957203;29;20535;-75
2021/09/23 04:17:24;;;;;;;25.10;17.85;;;10.70;99.90;;;;;;4956990;29;20031;-75
2021/09/23 04:19:50;;;;;;;23.75;17.45;;;10.70;99.90;;;;;;4940325;29;20161;-74
2021/09/23 04:22:16;;;;;;;21.27;17.20;;;10.60;99.90;;;;;;4939954;29;20031;-74
2021/09/23 04:24:41;;;;;;;25.00;18.27;;;10.70;99.90;;;;;;4956414;29;20094;-75
2021/09/23 04:27:07;;;;;;;22.98;16.45;;;10.70;99.90;;;;;;4956834;29;20035;-74
2021/09/23 04:29:33;;;;;;;22.92;17.50;;;10.70;99.90;;;;;;4939842;29;20031;-74
2021/09/23 04:32:00;;;;;;;25.23;17.65;;;10.60;99.90;;;;;;4939672;29;20034;-74
2021/09/23 04:34:25;;;;;;;22.33;16.45;;;10.60;99.90;;;;;;4957705;29;20023;-75
2021/09/23 04:36:51;;;;;;;23.52;16.67;;;10.60;99.90;;;;;;4956784;29;20067;-74
2021/09/23 04:39:18;;;;;;;22.30;17.20;;;10.60;99.90;;;;;;4957110;29;20106;-75
2021/09/23 04:41:44;;;;;;;23.80;18.20;;;10.60;99.90;;;;;;4957387;29;20053;-74
2021/09/23 04:44:10;;;;;;;26.30;18.15;;;10.60;99.90;;;;;;4955656;29;20043;-75
2021/09/23 04:46:36;;;;;;;20.08;16.15;;;10.60;99.90;;;;;;4957079;29;20039;-74
2021/09/23 04:49:02;;;;;;;22.00;16.63;;;10.60;99.90;;;;;;4939523;29;20028;-74
2021/09/23 04:51:28;;;;;;;20.10;16.55;;;10.70;99.90;;;;;;4938995;29;20078;-74
2021/09/23 04:53:55;;;;;;;23.42;17.80;;;10.60;99.90;;;;;;4956546;29;20030;-73
2021/09/23 04:56:21;;;;;;;22.13;17.55;;;10.70;99.90;;;;;;4956867;28;20039;-74
2021/09/23 04:58:46;;;;;;;21.58;17.58;;;10.60;99.90;;;;;;4956074;29;20024;-74
2021/09/23 05:01:12;;;;;;;23.60;17.52;;;10.60;99.90;;;;;;4956400;29;20031;-74
2021/09/23 05:03:37;;;;;;;23.23;17.02;;;10.60;99.90;;;;;;4957052;29;20094;-75
2021/09/23 05:06:03;;;;;;;24.70;18.70;;;10.70;99.90;;;;;;4938363;29;20046;-75
2021/09/23 05:08:29;;;;;;;24.20;18.17;;;10.60;99.90;;;;;;4939999;29;20039;-75
2021/09/23 05:10:54;;;;;;;24.17;18.67;;;10.60;99.90;;;;;;4939111;29;20118;-74
2021/09/23 05:13:20;;;;;;;23.02;18.80;;;10.60;99.90;;;;;;4938519;29;20030;-74
2021/09/23 05:15:45;;;;;;;26.92;19.27;;;10.60;99.90;;;;;;4939237;28;20085;-75
2021/09/23 05:18:11;;;;;;;24.02;18.80;;;10.60;99.90;;;;;;4938883;29;20369;-75
2021/09/23 05:20:38;;;;;;;27.73;19.98;;;10.60;99.90;;;;;;4955887;29;20035;-75
2021/09/23 05:23:04;;;;;;;23.70;18.15;;;10.60;99.90;;;;;;4955908;29;20362;-74
2021/09/23 05:25:30;;;;;;;25.60;19.45;;;10.70;99.90;;;;;;4956385;29;20575;-75
2021/09/23 05:27:56;;;;;;;28.38;20.25;;;10.60;99.90;;;;;;4955256;29;20117;-75
2021/09/23 05:30:22;;;;;;;22.30;18.65;;;10.60;99.90;;;;;;4956349;29;20083;-75
2021/09/23 05:32:48;;;;;;;22.92;17.92;;;10.70;99.90;;;;;;4938780;29;20121;-74
2021/09/23 05:35:14;;;;;;;24.27;18.50;;;10.70;99.90;;;;;;4955197;29;20031;-75
2021/09/23 05:37:40;;;;;;;20.27;16.92;;;10.70;99.90;;;;;;4938853;29;20501;-75
2021/09/23 05:40:07;;;;;;;24.52;19.42;;;10.70;99.90;;;;;;4954984;29;20023;-74
2021/09/23 05:42:33;;;;;;;24.33;19.88;;;10.70;99.90;;;;;;4956200;29;20044;-75
2021/09/23 05:44:59;;;;;;;27.15;20.30;;;10.70;99.90;;;;;;4949465;29;20034;-74
2021/09/23 05:47:24;;;;;;;24.52;19.67;;;10.80;99.90;;;;;;4927112;29;20031;-74
2021/09/23 05:49:50;;;;;;;26.95;19.58;;;10.80;99.90;;;;;;4919902;29;20118;-75
2021/09/23 05:52:16;;;;;;;25.73;21.58;;;10.80;99.90;;;;;;4955326;29;20372;-74
2021/09/23 05:54:42;;;;;;;24.52;20.30;;;10.80;99.90;;;;;;4955208;29;20027;-74
2021/09/23 05:57:08;;;;;;;27.95;21.58;;;10.90;99.90;;;;;;4937891;29;20504;-74
2021/09/23 05:59:34;;;;;;;27.50;20.30;;;10.90;99.90;;;;;;4955847;29;20050;-75
2021/09/23 06:01:59;;;;;;;25.08;19.65;;;10.90;99.90;;;;;;4937357;29;20491;-74
2021/09/23 06:04:25;;;;;;;24.25;20.25;;;11.00;99.90;;;;;;4936930;29;20083;-74
2021/09/23 06:06:50;;;;;;;22.77;18.73;;;11.10;99.90;;;;;;4919439;29;20026;-74
2021/09/23 06:09:16;;;;;;;27.73;20.45;;;11.10;99.90;;;;;;4935178;29;20075;-74
2021/09/23 06:11:42;;;;;;;23.33;18.50;;;11.10;99.90;;;;;;4919415;29;20048;-73
2021/09/23 06:14:08;;;;;;;22.50;18.70;;;11.10;99.90;;;;;;4935840;29;20040;-75
2021/09/23 06:16:34;;;;;;;30.38;20.40;;;11.10;99.90;;;;;;4946588;29;20500;-74
2021/09/23 06:19:00;;;;;;;25.67;22.17;;;11.10;99.90;;;;;;4938241;29;20066;-74
2021/09/23 06:21:26;;;;;;;24.90;20.27;;;11.20;99.90;;;;;;4955569;29;20057;-74
2021/09/23 06:23:52;;;;;;;28.15;22.77;;;11.20;99.90;;;;;;4952371;29;20027;-75
2021/09/23 06:26:19;;;;;;;25.67;21.45;;;11.20;99.90;;;;;;4918040;29;20511;-75
2021/09/23 06:28:45;;;;;;;29.45;25.38;;;11.20;99.90;;;;;;4919213;29;20024;-74
2021/09/23 06:31:11;;;;;;;29.38;23.52;;;11.30;99.90;;;;;;4935788;29;20499;-75
2021/09/23 06:33:36;;;;;;;29.20;24.48;;;11.40;99.90;;;;;;4936289;29;20024;-74
2021/09/23 06:36:02;;;;;;;30.85;23.42;;;11.40;99.90;;;;;;4926219;28;20031;-87
2021/09/23 06:38:28;;;;;;;24.98;21.33;;;11.50;99.90;;;;;;4936211;29;20031;-85
2021/09/23 06:40:56;;;;;;;27.50;22.48;;;11.50;99.90;;;;;;4936732;29;20486;-77
2021/09/23 06:43:22;;;;;;;31.05;25.13;;;11.60;99.90;;;;;;4933961;29;20044;-83
2021/09/23 06:45:49;;;;;;;31.60;24.30;;;11.70;99.90;;;;;;4925890;29;20047;-74
2021/09/23 06:48:14;;;;;;;28.38;24.00;;;11.70;99.90;;;;;;4935320;29;20039;-75
2021/09/23 06:50:40;;;;;;;28.35;24.23;;;11.80;99.90;;;;;;4932004;29;20023;-77
2021/09/23 06:53:05;;;;;;;28.85;24.88;;;11.90;99.90;;;;;;4954569;28;20027;-76
2021/09/23 06:55:31;;;;;;;35.47;26.25;;;11.90;99.90;;;;;;4950133;29;20103;-77
2021/09/23 06:57:57;;;;;;;29.75;24.60;;;12.00;99.90;;;;;;4934429;29;20095;-74
2021/09/23 07:00:23;;;;;;;32.22;25.83;;;12.10;99.90;;;;;;4950820;28;20034;-75
2021/09/23 07:02:48;;;;;;;30.58;24.65;;;12.10;99.90;;;;;;4955877;28;20042;-78
2021/09/23 07:05:14;;;;;;;33.45;26.65;;;12.10;99.90;;;;;;4940986;29;20480;-82
2021/09/23 07:07:40;;;;;;;34.45;27.30;;;12.20;99.90;;;;;;4949977;28;20028;-77
2021/09/23 07:10:06;;;;;;;31.98;27.55;;;12.30;99.90;;;;;;4935110;29;20027;-83
2021/09/23 07:12:33;;;;;;;31.95;25.50;;;12.30;99.90;;;;;;4917056;29;20024;-83
2021/09/23 07:14:58;;;;;;;33.42;26.73;;;12.30;99.90;;;;;;4917759;29;20114;-83
2021/09/23 07:17:25;;;;;;;35.63;27.50;;;12.40;99.90;;;;;;4918143;29;20106;-82
2021/09/23 07:19:50;;;;;;;34.65;29.35;;;12.40;99.90;;;;;;4934788;29;20110;-85
2021/09/23 07:22:17;;;;;;;33.65;26.92;;;12.40;99.90;;;;;;4935832;29;20119;-80
2021/09/23 07:24:42;;;;;;;34.22;27.80;;;12.50;99.90;;;;;;4917604;28;20082;-82
2021/09/23 07:27:08;;;;;;;31.27;27.02;;;12.60;99.90;;;;;;4966352;28;20031;-85
2021/09/23 07:29:34;;;;;;;33.80;28.38;;;12.60;99.90;;;;;;4936894;28;20042;-80
2021/09/23 07:31:59;;;;;;;29.50;24.98;;;12.70;99.90;;;;;;4935653;29;20035;-80
2021/09/23 07:34:25;;;;;;;31.48;27.00;;;12.80;99.90;;;;;;4936977;29;20483;-82
2021/09/23 07:36:51;;;;;;;32.72;26.50;;;13.00;99.90;;;;;;4956014;28;20468;-80
2021/09/23 07:39:16;;;;;;;37.55;28.75;;;13.20;99.90;;;;;;4940552;29;20045;-80
2021/09/23 07:41:46;;;;;;;29.02;25.77;;;13.40;99.90;;;;;;4940889;29;20031;-79
2021/09/23 07:44:14;;;;;;;35.47;28.55;;;13.50;99.90;;;;;;4940178;29;20055;-80
2021/09/23 07:46:41;;;;;;;36.70;28.17;;;13.70;99.90;;;;;;4957019;28;20069;-82
2021/09/23 07:49:07;;;;;;;34.80;27.73;;;13.80;99.90;;;;;;4940484;29;20019;-84
2021/09/23 07:51:34;;;;;;;32.67;27.13;;;13.90;99.90;;;;;;4923395;29;20031;-85
2021/09/23 07:54:00;;;;;;;35.47;26.80;;;13.90;99.90;;;;;;4920699;29;20122;-79
2021/09/23 07:56:25;;;;;;;30.67;26.35;;;14.00;99.90;;;;;;4921388;29;20385;-76
2021/09/23 07:58:51;;;;;;;29.42;26.23;;;14.00;99.90;;;;;;4921721;29;20473;-77
2021/09/23 08:01:17;;;;;;;27.70;24.65;;;14.00;99.90;;;;;;4920586;29;20020;-75
2021/09/23 08:03:42;;;;;;;34.97;27.85;;;14.00;99.90;;;;;;4939737;29;20028;-80
2021/09/23 08:06:09;;;;;;;31.58;26.13;;;14.00;99.90;;;;;;4947407;29;20496;-81
2021/09/23 08:08:35;;;;;;;35.25;28.15;;;14.10;99.90;;;;;;4922778;29;20059;-80
2021/09/23 08:11:01;;;;;;;36.85;27.92;;;14.10;99.90;;;;;;4925733;29;20058;-84
2021/09/23 08:13:27;;;;;;;34.08;26.85;;;14.20;99.90;;;;;;4940763;29;20026;-79
2021/09/23 08:15:53;;;;;;;32.55;25.73;;;14.30;99.90;;;;;;4956547;28;20020;-81
2021/09/23 08:18:20;;;;;;;29.73;25.20;;;14.40;99.90;;;;;;4940477;29;20344;-84
2021/09/23 08:20:46;;;;;;;31.30;25.42;;;14.40;99.90;;;;;;4957303;29;20023;-77
2021/09/23 08:23:12;;;;;;;30.52;24.45;;;14.50;99.90;;;;;;4956582;29;20396;-79
2021/09/23 08:25:38;;;;;;;30.83;24.95;;;14.60;99.90;;;;;;4923102;29;20035;-80
2021/09/23 08:28:04;;;;;;;29.42;24.33;;;14.60;99.90;;;;;;4921580;29;20019;-79
2021/09/23 08:30:30;;;;;;;26.77;23.08;;;14.80;99.90;;;;;;4934257;29;20030;-78
2021/09/23 08:32:55;;;;;;;28.33;23.60;;;14.90;99.90;;;;;;4932005;29;20388;-74
2021/09/23 08:35:23;;;;;;;29.50;21.77;;;15.00;99.90;;;;;;4940127;29;20058;-76
2021/09/23 08:37:49;;;;;;;26.38;21.35;;;15.00;99.90;;;;;;4939493;29;20023;-75
2021/09/23 08:40:14;;;;;;;30.35;24.35;;;15.10;99.90;;;;;;4939545;29;20035;-79
2021/09/23 08:42:43;;;;;;;28.13;22.27;;;15.30;99.90;;;;;;4938785;29;20373;-80
2021/09/23 08:45:11;;;;;;;24.48;19.98;;;15.50;99.90;;;;;;4934912;29;20067;-79
2021/09/23 08:47:36;;;;;;;27.77;22.48;;;15.60;99.90;;;;;;4919768;29;20134;-81
2021/09/23 08:50:04;;;;;;;26.98;22.50;;;15.70;99.90;;;;;;4936741;29;20473;-84
2021/09/23 08:52:30;;;;;;;24.40;21.75;;;15.80;99.90;;;;;;4924126;29;20031;-77
2021/09/23 08:54:56;;;;;;;23.90;20.13;;;15.80;99.90;;;;;;4928462;29;20079;-78
2021/09/23 08:57:21;;;;;;;28.63;23.75;;;15.70;99.90;;;;;;4936788;29;20028;-75
2021/09/23 08:59:47;;;;;;;29.67;24.25;;;15.70;99.90;;;;;;4928517;29;20027;-78
2021/09/23 09:02:25;;;;;;;25.05;21.33;;;15.70;99.90;;;;;;4939235;29;20107;-78
2021/09/23 09:04:53;;;;;;;27.83;22.98;;;15.80;99.90;;;;;;4938534;29;20071;-79
2021/09/23 09:07:30;;;;;;;31.27;21.58;;;15.90;99.90;;;;;;4937578;29;20027;-79
2021/09/23 09:10:05;;;;;;;24.15;21.33;;;16.00;99.90;;;;;;4923611;29;20039;-76
2021/09/23 09:12:31;;;;;;;29.48;23.50;;;16.10;99.90;;;;;;4920884;29;20042;-76
2021/09/23 09:14:58;;;;;;;27.38;22.15;;;16.20;99.90;;;;;;4920433;29;20380;-81
2021/09/23 09:17:24;;;;;;;29.08;21.60;;;16.20;99.90;;;;;;4921143;29;20032;-75
2021/09/23 09:19:57;;;;;;;25.85;22.27;;;16.30;99.90;;;;;;4951302;29;20028;-81
2021/09/23 09:22:26;;;;;;;27.98;21.27;;;16.40;99.90;;;;;;4939208;29;20391;-78
2021/09/23 09:24:57;;;;;;;23.40;19.23;;;16.40;99.90;;;;;;4938555;29;20039;-80
2021/09/23 09:27:40;;;;;;;25.40;19.65;;;16.40;99.90;;;;;;4938686;29;20384;-77
2021/09/23 09:30:11;;;;;;;20.33;17.48;;;16.50;99.90;;;;;;4938735;29;20038;-80
2021/09/23 09:32:46;;;;;;;20.90;14.93;;;16.50;99.90;;;;;;4935342;29;20035;-83
2021/09/23 09:35:16;;;;;;;20.95;14.60;;;16.60;99.90;;;;;;4939608;29;20039;-81
2021/09/23 09:37:45;;;;;;;17.85;14.98;;;16.70;99.90;;;;;;4935488;29;20019;-79
2021/09/23 09:40:14;;;;;;;19.65;14.68;;;16.80;99.90;;;;;;4939166;29;20127;-87
2021/09/23 09:42:45;;;;;;;15.75;12.95;;;16.80;99.90;;;;;;4939453;29;20073;-81
2021/09/23 09:45:23;;;;;;;18.10;13.85;;;16.80;99.90;;;;;;4938331;29;20062;-80
2021/09/23 09:47:52;;;;;;;16.00;12.73;;;16.70;99.90;;;;;;4953672;28;20023;-78
2021/09/23 09:50:25;;;;;;;15.77;13.15;;;16.80;99.90;;;;;;4935636;29;20027;-90
2021/09/23 09:52:57;;;;;;;22.92;14.98;;;16.70;99.90;;;;;;4939624;29;20073;-87
2021/09/23 09:55:35;;;;;;;17.38;14.65;;;16.80;99.90;;;;;;4955619;29;20031;-86
2021/09/23 09:58:04;;;;;;;19.92;14.73;;;16.90;99.90;;;;;;4939433;29;20050;-87
2021/09/23 10:00:31;;;;;;;17.83;14.40;;;16.90;99.90;;;;;;4937887;29;20031;-85
2021/09/23 10:02:57;;;;;;;15.05;13.48;;;17.10;99.90;;;;;;4955377;28;20031;-83
2021/09/23 10:05:23;;;;;;;17.95;14.85;;;17.30;99.90;;;;;;4938085;28;20181;-86
2021/09/23 10:07:52;;;;;;;19.65;15.38;;;17.40;99.90;;;;;;4937961;29;20127;-88
2021/09/23 10:10:21;;;;;;;16.63;14.02;;;17.50;99.90;;;;;;4944764;29;20067;-80
2021/09/23 10:12:48;;;;;;;18.52;14.00;;;17.60;99.90;;;;;;4919525;29;20024;-79
2021/09/23 10:15:16;;;;;;;20.10;14.23;;;17.70;99.90;;;;;;4934201;29;20031;-78
2021/09/23 10:17:47;;;;;;;20.55;15.05;;;17.70;99.90;;;;;;4937910;29;20023;-78
2021/09/23 10:20:24;;;;;;;19.05;12.32;;;17.70;99.90;;;;;;5070233;28;20125;-87
2021/09/23 10:22:51;;;;;;;19.88;13.73;;;17.70;99.90;;;;;;5048981;28;20104;-77
2021/09/23 10:25:30;;;;;;;13.20;11.07;;;17.80;99.90;;;;;;5048748;28;20389;-77
2021/09/23 10:27:58;;;;;;;15.77;11.73;;;17.90;99.90;;;;;;5048176;28;20529;-74
2021/09/23 10:30:27;;;;;;;12.30;10.95;;;17.90;99.90;;;;;;5049339;28;20112;-81
2021/09/23 10:32:54;;;;;;;12.18;10.18;;;17.90;99.90;;;;;;5037214;28;20113;-83
2021/09/23 10:35:22;;;;;;;14.93;11.38;;;18.00;99.90;;;;;;5028641;28;20028;-78
2021/09/23 10:37:50;;;;;;;12.40;9.82;;;18.00;99.90;;;;;;5028387;28;20022;-79
2021/09/23 10:40:17;;;;;;;13.73;10.30;;;18.00;99.90;;;;;;5031006;28;20038;-79
2021/09/23 10:42:44;;;;;;;10.68;8.90;;;18.00;99.90;;;;;;5047766;28;20057;-78
2021/09/23 10:45:10;;;;;;;13.88;9.98;;;17.90;99.90;;;;;;5047835;28;20544;-78
2021/09/23 10:47:37;;;;;;;13.38;10.30;;;17.90;99.90;;;;;;5048691;28;20076;-95
2021/09/23 10:50:06;;;;;;;12.15;9.68;;;17.90;99.90;;;;;;5032199;28;20029;-80
2021/09/23 10:52:34;;;;;;;10.98;8.05;;;17.80;99.90;;;;;;5032924;28;20108;-77
2021/09/23 10:55:05;;;;;;;11.85;8.85;;;17.80;99.90;;;;;;5047493;28;20497;-76
2021/09/23 10:57:32;;;;;;;13.48;8.55;;;17.70;99.90;;;;;;5043019;28;20032;-76
2021/09/23 11:00:07;;;;;;;10.60;8.15;;;17.80;99.90;;;;;;5048310;28;20500;-74
2021/09/23 11:02:33;;;;;;;10.85;7.30;;;17.80;99.90;;;;;;5049094;28;20025;-76
2021/09/23 11:05:02;;;;;;;12.75;7.95;;;17.80;99.90;;;;;;5034782;28;20032;-77
2021/09/23 11:07:29;;;;;;;9.80;6.75;;;17.80;99.90;;;;;;5027890;28;20112;-77
2021/09/23 11:10:09;;;;;;;7.22;5.93;;;17.80;99.90;;;;;;5027554;28;20040;-76
2021/09/23 11:12:35;;;;;;;7.03;4.93;;;17.90;99.90;;;;;;5028295;28;20034;-78
2021/09/23 11:15:02;;;;;;;11.55;5.88;;;17.90;99.90;;;;;;5028666;28;20025;-85
2021/09/23 11:17:29;;;;;;;9.10;5.15;;;18.00;99.90;;;;;;5033455;28;20033;-82
2021/09/23 11:19:59;;;;;;;11.52;5.45;;;18.00;99.90;;;;;;5047096;28;20053;-79
2021/09/23 11:22:40;;;;;;;6.28;4.60;;;18.00;99.90;;;;;;5048207;28;20374;-82
2021/09/23 11:25:17;;;;;;;8.60;5.40;;;18.00;99.90;;;;;;5046733;28;20112;-82
2021/09/23 11:27:46;;;;;;;7.50;4.43;;;18.10;99.90;;;;;;5047704;28;20112;-78
2021/09/23 11:30:15;;;;;;;8.25;4.45;;;18.10;99.90;;;;;;5025257;28;20029;-76
2021/09/23 11:32:51;;;;;;;8.68;4.50;;;18.10;99.90;;;;;;5012943;28;20088;-77
2021/09/23 11:35:20;;;;;;;8.48;3.83;;;18.20;99.90;;;;;;5013973;28;20032;-73
2021/09/23 11:37:47;;;;;;;8.90;4.20;;;18.20;99.90;;;;;;5014024;28;20131;-76
2021/09/23 11:40:22;;;;;;;7.13;4.30;;;18.20;99.90;;;;;;5014593;28;20042;-74
2021/09/23 11:42:48;;;;;;;6.97;3.90;;;18.30;99.90;;;;;;5029072;28;20052;-76
2021/09/23 11:45:23;;;;;;;5.25;3.50;;;18.30;99.90;;;;;;5022957;28;20502;-75
2021/09/23 11:47:55;;;;;;;8.27;4.10;;;18.40;99.90;;;;;;5008905;28;20037;-75
2021/09/23 11:50:33;;;;;;;5.30;3.58;;;18.40;99.90;;;;;;5013927;28;20439;-74
2021/09/23 11:53:00;;;;;;;7.35;4.10;;;18.50;99.90;;;;;;5014298;28;20058;-75
2021/09/23 11:55:26;;;;;;;7.35;3.58;;;18.50;99.90;;;;;;5015128;28;20096;-75
2021/09/23 11:58:07;;;;;;;11.10;3.90;;;18.50;99.90;;;;;;5013614;28;20360;-75
2021/09/23 12:00:43;;;;;;;4.72;3.65;;;18.50;99.90;;;;;;5014819;28;20036;-74
2021/09/23 12:03:11;;;;;;;8.57;4.13;;;18.50;99.90;;;;;;5015011;28;20068;-75
2021/09/23 12:05:37;;;;;;;5.28;3.67;;;18.60;99.90;;;;;;5013872;28;20429;-74
2021/09/23 12:08:09;;;;;;;8.15;3.67;;;18.70;99.90;;;;;;5012904;28;20033;-75
2021/09/23 12:11:08;;;;;;;8.02;5.28;;;18.80;99.90;;;;;;5013679;28;20030;-75
2021/09/23 12:13:54;;;;;;;7.40;4.38;;;18.90;99.90;;;;;;5014716;28;20030;-75
2021/09/23 12:16:23;;;;;;;5.47;4.10;;;19.00;99.90;;;;;;5014711;28;20528;-75
2021/09/23 12:18:49;;;;;;;7.10;3.50;;;19.10;99.90;;;;;;5021603;28;20049;-74
2021/09/23 12:21:17;;;;;;;9.98;4.10;;;19.20;99.90;;;;;;5033541;28;20083;-74
2021/09/23 12:23:49;;;;;;;10.23;4.43;;;19.20;99.90;;;;;;5016581;28;20469;-75
2021/09/23 12:26:26;;;;;;;5.78;3.60;;;19.20;99.90;;;;;;5016220;28;20076;-75
2021/09/23 12:29:01;;;;;;;5.80;3.10;;;19.20;99.90;;;;;;5033688;28;20195;-74